CEB278 RPLL-RPVE
Flight info
| Callsign | CEB278 |
|---|---|
| Flight time | 0h 38m |
| Altitude | 27000 |
| Route | VERDE2V VERDE W24 TAPER TAPER7B |
| Aircraft | A319/M-SDE3FGHIRWY/LB1 |
Departure
| Time | 2026-04-23 06:33 |
|---|---|
| Airport | Ninoy Aquino International Airport (RPLL) |
Arrival
| Time | 2026-04-23 07:12 |
|---|---|
| Airport | Godofredo P. Ramos Airport (RPVE) |
| Time | Latitude | Longitude | Altitude | Speed | Heading |
|---|---|---|---|---|---|
| 2026-04-23 06:18 | 14.52300 | 121.00903 | 83 ft | 0 kts | 46° |
| 2026-04-23 06:24 | 14.52290 | 121.00892 | 83 ft | 4 kts | 46° |
| 2026-04-23 06:24 | 14.52274 | 121.00874 | 83 ft | 3 kts | 47° |
| 2026-04-23 06:24 | 14.52257 | 121.00855 | 83 ft | 3 kts | 47° |
| 2026-04-23 06:25 | 14.52241 | 121.00836 | 83 ft | 3 kts | 48° |
| 2026-04-23 06:25 | 14.52229 | 121.00823 | 83 ft | 1 kts | 35° |
| 2026-04-23 06:25 | 14.52219 | 121.00819 | 83 ft | 1 kts | 18° |
| 2026-04-23 06:25 | 14.52210 | 121.00819 | 83 ft | 2 kts | 343° |
| 2026-04-23 06:26 | 14.52200 | 121.00824 | 83 ft | 0 kts | 318° |
| 2026-04-23 06:26 | 14.52201 | 121.00822 | 83 ft | 0 kts | 318° |
| 2026-04-23 06:26 | 14.52203 | 121.00821 | 83 ft | 0 kts | 318° |
| 2026-04-23 06:26 | 14.52205 | 121.00819 | 83 ft | 0 kts | 318° |
| 2026-04-23 06:27 | 14.52207 | 121.00817 | 83 ft | 0 kts | 318° |
| 2026-04-23 06:27 | 14.52210 | 121.00815 | 83 ft | 0 kts | 318° |
| 2026-04-23 06:27 | 14.52216 | 121.00809 | 83 ft | 1 kts | 317° |
| 2026-04-23 06:27 | 14.52228 | 121.00796 | 83 ft | 3 kts | 312° |
| 2026-04-23 06:28 | 14.52249 | 121.00771 | 83 ft | 7 kts | 310° |
| 2026-04-23 06:28 | 14.52297 | 121.00719 | 83 ft | 13 kts | 314° |
| 2026-04-23 06:28 | 14.52369 | 121.00645 | 83 ft | 15 kts | 315° |
| 2026-04-23 06:28 | 14.52427 | 121.00584 | 83 ft | 10 kts | 315° |
| 2026-04-23 06:29 | 14.52479 | 121.00531 | 83 ft | 12 kts | 314° |
| 2026-04-23 06:29 | 14.52534 | 121.00473 | 83 ft | 10 kts | 307° |
| 2026-04-23 06:29 | 14.52546 | 121.00405 | 83 ft | 10 kts | 263° |
| 2026-04-23 06:29 | 14.52538 | 121.00336 | 83 ft | 12 kts | 266° |
| 2026-04-23 06:30 | 14.52531 | 121.00259 | 83 ft | 9 kts | 237° |
| 2026-04-23 06:30 | 14.52484 | 121.00280 | 83 ft | 10 kts | 134° |
| 2026-04-23 06:30 | 14.52453 | 121.00312 | 83 ft | 0 kts | 135° |
| 2026-04-23 06:32 | 14.52444 | 121.00322 | 83 ft | 8 kts | 135° |
| 2026-04-23 06:33 | 14.52310 | 121.00458 | 84 ft | 59 kts | 135° |
| 2026-04-23 06:33 | 14.51899 | 121.00883 | 84 ft | 122 kts | 135° |
| 2026-04-23 06:33 | 14.51247 | 121.01569 | 325 ft | 149 kts | 133° |
| 2026-04-23 06:33 | 14.50590 | 121.02284 | 959 ft | 144 kts | 132° |
| 2026-04-23 06:34 | 14.49975 | 121.02947 | 1529 ft | 145 kts | 135° |
| 2026-04-23 06:34 | 14.49318 | 121.03624 | 2009 ft | 146 kts | 135° |
| 2026-04-23 06:34 | 14.48572 | 121.04385 | 2302 ft | 160 kts | 135° |
| 2026-04-23 06:34 | 14.47807 | 121.05171 | 2590 ft | 175 kts | 135° |
| 2026-04-23 06:35 | 14.47003 | 121.05979 | 2894 ft | 190 kts | 141° |
| 2026-04-23 06:35 | 14.45891 | 121.06498 | 3191 ft | 206 kts | 173° |
| 2026-04-23 06:35 | 14.44447 | 121.06477 | 3595 ft | 224 kts | 186° |
| 2026-04-23 06:35 | 14.42946 | 121.06312 | 4024 ft | 241 kts | 186° |
| 2026-04-23 06:36 | 14.41337 | 121.06152 | 4463 ft | 258 kts | 185° |
| 2026-04-23 06:36 | 14.39666 | 121.06025 | 4916 ft | 274 kts | 184° |
| 2026-04-23 06:36 | 14.37836 | 121.05920 | 5634 ft | 280 kts | 183° |
| 2026-04-23 06:36 | 14.36142 | 121.05842 | 6397 ft | 282 kts | 182° |
| 2026-04-23 06:37 | 14.34396 | 121.05772 | 7144 ft | 285 kts | 182° |
| 2026-04-23 06:37 | 14.32534 | 121.05704 | 7910 ft | 288 kts | 182° |
| 2026-04-23 06:37 | 14.30685 | 121.05640 | 8654 ft | 291 kts | 182° |
| 2026-04-23 06:37 | 14.28789 | 121.05579 | 9396 ft | 294 kts | 182° |
| 2026-04-23 06:38 | 14.26814 | 121.05515 | 10143 ft | 297 kts | 182° |
| 2026-04-23 06:38 | 14.24827 | 121.05452 | 10697 ft | 307 kts | 182° |
| 2026-04-23 06:38 | 14.22838 | 121.05389 | 11006 ft | 324 kts | 182° |
| 2026-04-23 06:38 | 14.20649 | 121.05319 | 11311 ft | 341 kts | 182° |
| 2026-04-23 06:39 | 14.18352 | 121.05247 | 11608 ft | 358 kts | 182° |
| 2026-04-23 06:39 | 14.15993 | 121.05173 | 12068 ft | 369 kts | 182° |
| 2026-04-23 06:39 | 14.13589 | 121.05100 | 12780 ft | 372 kts | 182° |
| 2026-04-23 06:39 | 14.11133 | 121.05025 | 13497 ft | 375 kts | 181° |
| 2026-04-23 06:40 | 14.08690 | 121.04950 | 14151 ft | 378 kts | 182° |
| 2026-04-23 06:40 | 14.06223 | 121.04875 | 14789 ft | 382 kts | 182° |
| 2026-04-23 06:40 | 14.03789 | 121.04800 | 15402 ft | 385 kts | 182° |
| 2026-04-23 06:40 | 14.01279 | 121.04723 | 16014 ft | 389 kts | 182° |
| 2026-04-23 06:41 | 13.98839 | 121.04649 | 16589 ft | 392 kts | 182° |
| 2026-04-23 06:41 | 13.96323 | 121.04572 | 17165 ft | 395 kts | 182° |
| 2026-04-23 06:41 | 13.93825 | 121.04495 | 17720 ft | 398 kts | 182° |
| 2026-04-23 06:41 | 13.91269 | 121.04417 | 18273 ft | 401 kts | 182° |
| 2026-04-23 06:42 | 13.88994 | 121.04346 | 18752 ft | 404 kts | 182° |
| 2026-04-23 06:42 | 13.86741 | 121.04278 | 19215 ft | 406 kts | 182° |
| 2026-04-23 06:42 | 13.84321 | 121.04203 | 19699 ft | 409 kts | 182° |
| 2026-04-23 06:42 | 13.81739 | 121.04125 | 20284 ft | 410 kts | 182° |
| 2026-04-23 06:43 | 13.79281 | 121.04049 | 20954 ft | 407 kts | 182° |
| 2026-04-23 06:43 | 13.76802 | 121.03973 | 21610 ft | 404 kts | 182° |
| 2026-04-23 06:43 | 13.74259 | 121.03896 | 22228 ft | 403 kts | 182° |
| 2026-04-23 06:43 | 13.71686 | 121.03818 | 22824 ft | 402 kts | 181° |
| 2026-04-23 06:44 | 13.69193 | 121.03742 | 23388 ft | 401 kts | 181° |
| 2026-04-23 06:44 | 13.66671 | 121.03666 | 23947 ft | 400 kts | 181° |
| 2026-04-23 06:44 | 13.64156 | 121.03590 | 24488 ft | 398 kts | 181° |
| 2026-04-23 06:44 | 13.61722 | 121.03518 | 24997 ft | 397 kts | 181° |
| 2026-04-23 06:45 | 13.59221 | 121.03442 | 25504 ft | 396 kts | 181° |
| 2026-04-23 06:45 | 13.56799 | 121.03368 | 25979 ft | 395 kts | 182° |
| 2026-04-23 06:45 | 13.54420 | 121.03296 | 26435 ft | 394 kts | 181° |
| 2026-04-23 06:45 | 13.52047 | 121.03414 | 26734 ft | 394 kts | 171° |
| 2026-04-23 06:46 | 13.49774 | 121.03981 | 26826 ft | 395 kts | 160° |
| 2026-04-23 06:46 | 13.47592 | 121.05038 | 26832 ft | 404 kts | 149° |
| 2026-04-23 06:46 | 13.45455 | 121.06485 | 26836 ft | 405 kts | 145° |
| 2026-04-23 06:46 | 13.43366 | 121.08006 | 26836 ft | 405 kts | 144° |
| 2026-04-23 06:47 | 13.41248 | 121.09552 | 26836 ft | 405 kts | 145° |
| 2026-04-23 06:47 | 13.39118 | 121.11080 | 26836 ft | 405 kts | 145° |
| 2026-04-23 06:47 | 13.37011 | 121.12573 | 26836 ft | 405 kts | 145° |
| 2026-04-23 06:47 | 13.34837 | 121.14102 | 26836 ft | 405 kts | 146° |
| 2026-04-23 06:48 | 13.32660 | 121.15628 | 26836 ft | 405 kts | 146° |
| 2026-04-23 06:48 | 13.30514 | 121.17131 | 26836 ft | 405 kts | 146° |
| 2026-04-23 06:48 | 13.28368 | 121.18634 | 26836 ft | 405 kts | 146° |
| 2026-04-23 06:48 | 13.26223 | 121.20137 | 26836 ft | 405 kts | 146° |
| 2026-04-23 06:49 | 13.24078 | 121.21641 | 26836 ft | 405 kts | 146° |
| 2026-04-23 06:49 | 13.21933 | 121.23144 | 26836 ft | 405 kts | 146° |
| 2026-04-23 06:49 | 13.19757 | 121.24670 | 26836 ft | 405 kts | 146° |
| 2026-04-23 06:49 | 13.17611 | 121.26173 | 26836 ft | 405 kts | 146° |
| 2026-04-23 06:50 | 13.15436 | 121.27698 | 26836 ft | 405 kts | 146° |
| 2026-04-23 06:50 | 13.13228 | 121.29244 | 26836 ft | 405 kts | 146° |
| 2026-04-23 06:50 | 13.11052 | 121.30769 | 26836 ft | 405 kts | 146° |
| 2026-04-23 06:50 | 13.09000 | 121.32205 | 26836 ft | 405 kts | 146° |
| 2026-04-23 06:51 | 13.06918 | 121.33664 | 26836 ft | 405 kts | 146° |
| 2026-04-23 06:51 | 13.04897 | 121.35079 | 26836 ft | 405 kts | 146° |
| 2026-04-23 06:51 | 13.02816 | 121.36536 | 26836 ft | 405 kts | 146° |
| 2026-04-23 06:51 | 13.00685 | 121.38027 | 26735 ft | 404 kts | 146° |
| 2026-04-23 06:52 | 12.98671 | 121.39436 | 26235 ft | 406 kts | 146° |
| 2026-04-23 06:52 | 12.96567 | 121.40907 | 25602 ft | 408 kts | 146° |
| 2026-04-23 06:52 | 12.94274 | 121.42512 | 25056 ft | 406 kts | 146° |
| 2026-04-23 06:52 | 12.92034 | 121.44079 | 24494 ft | 405 kts | 146° |
| 2026-04-23 06:53 | 12.89783 | 121.45653 | 23856 ft | 406 kts | 146° |
| 2026-04-23 06:53 | 12.88312 | 121.46677 | 23419 ft | 407 kts | 146° |
| 2026-04-23 06:53 | 12.86171 | 121.48164 | 22776 ft | 409 kts | 146° |
| 2026-04-23 06:53 | 12.84161 | 121.49560 | 22171 ft | 410 kts | 146° |
| 2026-04-23 06:54 | 12.81975 | 121.51082 | 21497 ft | 411 kts | 146° |
| 2026-04-23 06:54 | 12.79692 | 121.52673 | 20775 ft | 412 kts | 146° |
| 2026-04-23 06:54 | 12.77413 | 121.54261 | 20039 ft | 413 kts | 146° |
| 2026-04-23 06:54 | 12.75132 | 121.55853 | 19286 ft | 415 kts | 146° |
| 2026-04-23 06:55 | 12.72810 | 121.57471 | 18439 ft | 418 kts | 146° |
| 2026-04-23 06:55 | 12.70486 | 121.59093 | 17704 ft | 417 kts | 146° |
| 2026-04-23 06:55 | 12.68152 | 121.60721 | 17218 ft | 410 kts | 146° |
| 2026-04-23 06:55 | 12.65854 | 121.62324 | 16726 ft | 404 kts | 146° |
| 2026-04-23 06:56 | 12.63588 | 121.63905 | 16232 ft | 399 kts | 146° |
| 2026-04-23 06:56 | 12.61449 | 121.65398 | 15763 ft | 395 kts | 146° |
| 2026-04-23 06:56 | 12.59316 | 121.66898 | 15292 ft | 392 kts | 146° |
| 2026-04-23 06:56 | 12.57194 | 121.68390 | 14823 ft | 388 kts | 146° |
| 2026-04-23 06:57 | 12.55021 | 121.69913 | 14343 ft | 385 kts | 146° |
| 2026-04-23 06:57 | 12.52933 | 121.71373 | 13880 ft | 382 kts | 146° |
| 2026-04-23 06:57 | 12.50777 | 121.72877 | 13401 ft | 379 kts | 146° |
| 2026-04-23 06:57 | 12.48660 | 121.74353 | 12931 ft | 375 kts | 146° |
| 2026-04-23 06:58 | 12.46557 | 121.75818 | 12461 ft | 372 kts | 146° |
| 2026-04-23 06:58 | 12.44472 | 121.77271 | 11995 ft | 369 kts | 146° |
| 2026-04-23 06:58 | 12.42416 | 121.78701 | 11534 ft | 366 kts | 146° |
| 2026-04-23 06:58 | 12.40399 | 121.80104 | 11079 ft | 363 kts | 146° |
| 2026-04-23 06:59 | 12.38377 | 121.81480 | 10617 ft | 361 kts | 150° |
| 2026-04-23 06:59 | 12.37909 | 121.81741 | 10508 ft | 360 kts | 154° |
| 2026-04-23 06:59 | 12.35649 | 121.82365 | 10275 ft | 347 kts | 176° |
| 2026-04-23 06:59 | 12.33352 | 121.82162 | 10224 ft | 330 kts | 191° |
| 2026-04-23 07:00 | 12.31185 | 121.81689 | 10144 ft | 316 kts | 193° |
| 2026-04-23 07:00 | 12.29097 | 121.81200 | 10070 ft | 302 kts | 193° |
| 2026-04-23 07:00 | 12.27117 | 121.80742 | 10009 ft | 289 kts | 193° |
| 2026-04-23 07:00 | 12.25216 | 121.80312 | 9697 ft | 288 kts | 192° |
| 2026-04-23 07:01 | 12.23297 | 121.79885 | 9366 ft | 286 kts | 192° |
| 2026-04-23 07:01 | 12.21367 | 121.79461 | 9047 ft | 285 kts | 192° |
| 2026-04-23 07:01 | 12.19468 | 121.79047 | 8736 ft | 283 kts | 192° |
| 2026-04-23 07:01 | 12.17584 | 121.78638 | 8427 ft | 281 kts | 192° |
| 2026-04-23 07:02 | 12.15686 | 121.78226 | 8115 ft | 280 kts | 192° |
| 2026-04-23 07:02 | 12.13935 | 121.77846 | 7827 ft | 278 kts | 192° |
| 2026-04-23 07:02 | 12.12043 | 121.77438 | 7516 ft | 277 kts | 192° |
| 2026-04-23 07:02 | 12.10181 | 121.77035 | 7209 ft | 275 kts | 192° |
| 2026-04-23 07:03 | 12.08320 | 121.76632 | 6902 ft | 274 kts | 192° |
| 2026-04-23 07:03 | 12.06484 | 121.76235 | 6598 ft | 272 kts | 192° |
| 2026-04-23 07:03 | 12.04636 | 121.75835 | 6293 ft | 271 kts | 192° |
| 2026-04-23 07:03 | 12.02823 | 121.75443 | 5993 ft | 269 kts | 192° |
| 2026-04-23 07:04 | 12.01011 | 121.75051 | 5693 ft | 268 kts | 192° |
| 2026-04-23 07:04 | 11.99333 | 121.74689 | 5415 ft | 267 kts | 192° |
| 2026-04-23 07:04 | 11.97559 | 121.74305 | 5121 ft | 265 kts | 192° |
| 2026-04-23 07:04 | 11.95813 | 121.73927 | 4832 ft | 264 kts | 192° |
| 2026-04-23 07:05 | 11.94043 | 121.73545 | 4539 ft | 263 kts | 192° |
| 2026-04-23 07:05 | 11.92351 | 121.73192 | 4253 ft | 262 kts | 188° |
| 2026-04-23 07:05 | 11.90597 | 121.73260 | 4011 ft | 257 kts | 165° |
| 2026-04-23 07:05 | 11.89126 | 121.73852 | 3835 ft | 251 kts | 154° |
| 2026-04-23 07:06 | 11.87759 | 121.74573 | 3801 ft | 239 kts | 152° |
| 2026-04-23 07:06 | 11.86424 | 121.75301 | 3794 ft | 225 kts | 152° |
| 2026-04-23 07:06 | 11.85089 | 121.76019 | 3789 ft | 211 kts | 152° |
| 2026-04-23 07:06 | 11.84003 | 121.76887 | 3764 ft | 199 kts | 120° |
| 2026-04-23 07:07 | 11.83746 | 121.78117 | 3704 ft | 183 kts | 81° |
| 2026-04-23 07:07 | 11.84175 | 121.79245 | 3502 ft | 175 kts | 62° |
| 2026-04-23 07:07 | 11.84745 | 121.80287 | 3285 ft | 169 kts | 60° |
| 2026-04-23 07:07 | 11.85304 | 121.81293 | 3084 ft | 161 kts | 60° |
| 2026-04-23 07:08 | 11.85827 | 121.82267 | 2883 ft | 152 kts | 62° |
| 2026-04-23 07:08 | 11.86294 | 121.83166 | 2719 ft | 145 kts | 62° |
| 2026-04-23 07:08 | 11.86749 | 121.84056 | 2488 ft | 146 kts | 62° |
| 2026-04-23 07:08 | 11.87127 | 121.84804 | 2281 ft | 143 kts | 63° |
| 2026-04-23 07:09 | 11.87484 | 121.85512 | 2141 ft | 143 kts | 62° |
| 2026-04-23 07:09 | 11.87929 | 121.86395 | 1953 ft | 144 kts | 62° |
| 2026-04-23 07:09 | 11.88376 | 121.87279 | 1766 ft | 143 kts | 62° |
| 2026-04-23 07:09 | 11.88806 | 121.88133 | 1587 ft | 143 kts | 62° |
| 2026-04-23 07:10 | 11.89245 | 121.89008 | 1403 ft | 142 kts | 63° |
| 2026-04-23 07:10 | 11.89687 | 121.89891 | 1218 ft | 142 kts | 63° |
| 2026-04-23 07:10 | 11.90128 | 121.90777 | 1032 ft | 142 kts | 63° |
| 2026-04-23 07:10 | 11.90571 | 121.91665 | 847 ft | 141 kts | 63° |
| 2026-04-23 07:11 | 11.91010 | 121.92554 | 656 ft | 142 kts | 63° |
| 2026-04-23 07:11 | 11.91460 | 121.93448 | 467 ft | 142 kts | 62° |
| 2026-04-23 07:11 | 11.91890 | 121.94321 | 272 ft | 141 kts | 63° |
| 2026-04-23 07:12 | 11.92715 | 121.95924 | 14 ft | 102 kts | 62° |
| 2026-04-23 07:12 | 11.92893 | 121.96266 | 13 ft | 24 kts | 62° |
| 2026-04-23 07:12 | 11.92953 | 121.96420 | 13 ft | 17 kts | 90° |
| 2026-04-23 07:12 | 11.92894 | 121.96495 | 13 ft | 12 kts | 144° |
| 2026-04-23 07:13 | 11.92825 | 121.96531 | 13 ft | 13 kts | 162° |
| 2026-04-23 07:13 | 11.92769 | 121.96509 | 13 ft | 10 kts | 236° |
| 2026-04-23 07:13 | 11.92730 | 121.96506 | 13 ft | 6 kts | 156° |
| 2026-04-23 07:13 | 11.92722 | 121.96510 | 13 ft | 0 kts | 151° |